Time;durP1;ratioP1;P1;durP2;ratioP2;P2;SDS_P1;SDS_P2;PMS_P1;PMS_P2;Temp;Humidity;BMP_temperature;BMP_pressure;BME280_temperature;BME280_humidity;BME280_pressure;Samples;Min_cycle;Max_cycle;Signal;HPM_P1;HPM_P2
2022/06/23 00:01:18;;;;;;;17.45;8.98;;;;;;;24.48;73.81;98901.03;5069721;28;20750;-56
2022/06/23 00:03:48;;;;;;;10.20;8.25;;;;;;;24.52;73.14;98911.19;5069656;28;20315;-58
2022/06/23 00:06:37;;;;;;;17.85;9.10;;;;;;;24.50;73.00;98902.53;5069909;28;20282;-58
2022/06/23 00:09:36;;;;;;;16.00;8.60;;;;;;;24.61;72.60;98905.00;5069976;28;20195;-55
2022/06/23 00:12:17;;;;;;;12.73;8.27;;;;;;;24.66;72.34;98911.69;5069481;28;20572;-55
2022/06/23 00:14:44;;;;;;;15.60;8.65;;;;;;;24.66;72.33;98912.53;5069558;28;20227;-55
2022/06/23 00:17:21;;;;;;;14.88;9.18;;;;;;;24.68;72.62;98910.56;5067802;28;20199;-55
2022/06/23 00:19:48;;;;;;;16.23;8.13;;;;;;;24.69;72.40;98903.44;5069549;28;20217;-58
2022/06/23 00:22:21;;;;;;;14.43;8.13;;;;;;;24.70;72.71;98897.16;5069340;28;20200;-57
2022/06/23 00:24:52;;;;;;;15.13;8.77;;;;;;;24.76;72.20;98893.88;5069648;28;20220;-57
2022/06/23 00:27:23;;;;;;;17.63;8.40;;;;;;;24.73;72.27;98889.72;5069097;28;20196;-57
2022/06/23 00:29:50;;;;;;;16.38;9.75;;;;;;;24.75;72.61;98894.88;5069536;28;20206;-56
2022/06/23 00:32:17;;;;;;;16.70;8.80;;;;;;;24.78;72.41;98894.56;5069436;28;20214;-55
2022/06/23 00:34:51;;;;;;;17.45;8.73;;;;;;;24.83;71.99;98892.34;5069180;28;20192;-55
2022/06/23 00:37:21;;;;;;;14.23;8.40;;;;;;;24.78;72.43;98886.63;5069366;28;20205;-53
2022/06/23 00:39:53;;;;;;;10.82;9.35;;;;;;;24.79;72.10;98886.47;5069567;28;20206;-55
2022/06/23 00:42:24;;;;;;;13.27;8.07;;;;;;;24.83;71.40;98874.56;5069337;28;20203;-55
2022/06/23 00:44:55;;;;;;;12.52;9.15;;;;;;;24.79;71.52;98881.16;5069201;28;20226;-55
2022/06/23 00:47:28;;;;;;;14.35;9.00;;;;;;;24.80;71.37;98876.69;5069042;28;20591;-55
2022/06/23 00:50:03;;;;;;;16.25;9.32;;;;;;;24.79;71.26;98875.03;5069201;28;20210;-55
2022/06/23 00:52:37;;;;;;;14.25;7.82;;;;;;;24.78;71.05;98876.00;5069171;28;20203;-57
2022/06/23 00:55:11;;;;;;;11.50;8.48;;;;;;;24.83;70.84;98877.22;5069219;28;20724;-57
2022/06/23 00:57:44;;;;;;;11.77;8.07;;;;;;;24.77;70.59;98872.50;5069115;28;20203;-56
2022/06/23 01:00:18;;;;;;;9.32;7.07;;;;;;;24.76;70.40;98875.31;5069087;28;20203;-56
2022/06/23 01:02:51;;;;;;;11.23;8.27;;;;;;;24.75;70.34;98876.28;5068828;28;20593;-57
2022/06/23 01:05:24;;;;;;;12.45;8.02;;;;;;;24.74;70.30;98877.28;5069170;28;20223;-57
2022/06/23 01:08:00;;;;;;;15.32;7.35;;;;;;;24.75;70.48;98884.25;5069252;28;20196;-57
2022/06/23 01:10:33;;;;;;;9.38;8.23;;;;;;;24.65;70.86;98875.53;5068866;28;20584;-58
2022/06/23 01:13:06;;;;;;;10.65;7.55;;;;;;;24.59;71.32;98875.16;5069121;28;20203;-56
2022/06/23 01:15:40;;;;;;;13.70;8.18;;;;;;;24.58;71.42;98878.78;5068907;28;20285;-57
2022/06/23 01:18:16;;;;;;;13.32;8.60;;;;;;;24.59;71.67;98882.28;5068856;28;20196;-57
2022/06/23 01:20:50;;;;;;;11.98;7.60;;;;;;;24.59;71.24;98877.81;5068758;28;20706;-58
2022/06/23 01:23:49;;;;;;;14.02;8.20;;;;;;;24.60;71.16;98884.75;5068814;28;20196;-58
2022/06/23 01:26:40;;;;;;;11.00;7.97;;;;;;;24.59;71.20;98891.06;5050170;28;20204;-58
2022/06/23 01:29:13;;;;;;;15.40;8.30;;;;;;;24.57;71.18;98885.06;5068677;28;20686;-58
2022/06/23 01:31:47;;;;;;;12.85;8.20;;;;;;;24.59;71.47;98880.44;5068941;28;20218;-54
2022/06/23 01:34:22;;;;;;;14.10;8.18;;;;;;;24.61;71.17;98878.47;5068740;28;20279;-54
2022/06/23 01:37:02;;;;;;;12.93;7.90;;;;;;;24.56;71.36;98862.16;5068933;28;20291;-57
2022/06/23 01:39:39;;;;;;;12.30;7.65;;;;;;;24.53;71.32;98869.59;5070111;28;20205;-57
2022/06/23 01:42:19;;;;;;;12.00;7.78;;;;;;;24.47;70.74;98865.72;5072292;28;20222;-56
2022/06/23 01:44:54;;;;;;;11.60;7.85;;;;;;;24.52;70.76;98874.03;5072107;28;20219;-56
2022/06/23 01:47:28;;;;;;;8.15;7.43;;;;;;;24.50;70.85;98875.16;5072297;28;20245;-57
2022/06/23 01:50:45;;;;;;;12.73;7.75;;;;;;;24.47;70.96;98844.50;5072200;28;20279;-57
2022/06/23 01:53:24;;;;;;;14.30;7.70;;;;;;;24.44;71.50;98860.69;4990506;28;20194;-57
2022/06/23 01:56:23;;;;;;;14.27;8.20;;;;;;;24.41;71.57;98866.28;5059688;28;20283;-57
2022/06/23 01:58:58;;;;;;;14.23;8.82;;;;;;;24.41;71.77;98868.94;5068739;28;20286;-55
2022/06/23 02:01:36;;;;;;;13.27;8.48;;;;;;;24.39;71.71;98873.56;5072234;28;20191;-55
2022/06/23 02:04:11;;;;;;;13.65;9.43;;;;;;;24.44;71.37;98879.28;5071795;28;20242;-58
2022/06/23 02:06:48;;;;;;;10.20;8.50;;;;;;;24.46;71.41;98879.13;5071739;28;20206;-58
2022/06/23 02:09:24;;;;;;;8.77;7.95;;;;;;;24.47;70.63;98876.31;5072079;28;20686;-56
2022/06/23 02:11:53;;;;;;;11.65;8.27;;;;;;;24.49;70.65;98870.88;5072026;28;20196;-55
2022/06/23 02:14:44;;;;;;;12.48;8.30;;;;;;;24.48;69.72;98880.66;5071633;28;20192;-56
2022/06/23 02:17:25;;;;;;;10.15;8.27;;;;;;;24.47;70.38;98870.19;5071647;28;20202;-56
2022/06/23 02:19:55;;;;;;;10.75;7.63;;;;;;;24.51;70.30;98888.28;5071802;28;20196;-56
2022/06/23 02:22:26;;;;;;;10.93;7.88;;;;;;;24.42;70.16;98861.81;5071664;28;20635;-58
2022/06/23 02:24:57;;;;;;;17.42;8.43;;;;;;;24.50;70.39;98881.31;5071598;28;20231;-58
2022/06/23 02:27:41;;;;;;;10.57;7.35;;;;;;;24.46;70.51;98871.16;5071405;28;20298;-58
2022/06/23 02:30:15;;;;;;;10.25;8.57;;;;;;;24.48;70.73;98871.84;5071234;28;20202;-57
2022/06/23 02:32:57;;;;;;;14.57;8.35;;;;;;;24.48;70.56;98879.81;5071479;28;20589;-55
2022/06/23 02:35:28;;;;;;;14.38;8.13;;;;;;;24.46;70.43;98874.66;5071395;28;20207;-56
2022/06/23 02:38:04;;;;;;;12.73;8.00;;;;;;;24.39;71.06;98878.84;5071838;28;20665;-58
2022/06/23 02:40:38;;;;;;;11.18;8.07;;;;;;;24.41;70.68;98871.59;5071265;28;20290;-57
2022/06/23 02:43:15;;;;;;;11.90;8.52;;;;;;;24.30;70.83;98865.66;5071208;28;20192;-57
2022/06/23 02:46:23;;;;;;;11.05;7.75;;;;;;;24.29;70.85;98866.63;5071166;28;20242;-57
2022/06/23 02:49:16;;;;;;;10.27;7.70;;;;;;;24.25;71.34;98847.53;5048913;28;20202;-55
2022/06/23 02:52:08;;;;;;;9.88;7.13;;;;;;;24.26;71.25;98853.69;5070855;28;20589;-54
2022/06/23 02:55:06;;;;;;;10.88;7.75;;;;;;;24.23;71.30;98853.00;5070383;28;20215;-55
2022/06/23 02:57:40;;;;;;;15.40;8.32;;;;;;;24.14;71.95;98853.00;5067207;28;20200;-57
2022/06/23 03:00:18;;;;;;;12.70;8.15;;;;;;;24.10;72.32;98860.41;5069450;28;20742;-56
2022/06/23 03:02:58;;;;;;;8.65;7.80;;;;;;;24.11;72.60;98854.13;5069042;28;20588;-57
2022/06/23 03:05:35;;;;;;;15.82;8.48;;;;;;;24.19;72.53;98856.88;5069375;28;20705;-57
2022/06/23 03:08:08;;;;;;;11.48;7.65;;;;;;;24.20;72.29;98849.75;5068139;28;20282;-56
2022/06/23 03:10:41;;;;;;;13.02;8.13;;;;;;;24.16;72.61;98859.81;5066664;28;20454;-57
2022/06/23 03:13:16;;;;;;;8.98;7.43;;;;;;;24.22;72.51;98856.63;5068745;28;20208;-56
2022/06/23 03:15:51;;;;;;;8.40;7.40;;;;;;;24.18;72.54;98859.66;5069014;28;20219;-56
2022/06/23 03:18:24;;;;;;;9.05;8.15;;;;;;;24.24;72.69;98857.31;5067199;28;20584;-57
2022/06/23 03:20:58;;;;;;;14.98;8.73;;;;;;;24.36;72.07;98863.25;5068912;28;20196;-57
2022/06/23 03:23:32;;;;;;;10.88;7.82;;;;;;;24.40;71.78;98864.63;5069034;28;20196;-56
2022/06/23 03:26:08;;;;;;;11.40;8.32;;;;;;;24.39;71.90;98873.56;5067196;28;20232;-56
2022/06/23 03:28:45;;;;;;;16.98;8.90;;;;;;;24.47;72.07;98881.63;5066365;28;20188;-57
2022/06/23 03:31:21;;;;;;;10.75;8.57;;;;;;;24.55;71.54;98873.75;5068815;28;20778;-56
2022/06/23 03:33:54;;;;;;;12.32;8.23;;;;;;;24.54;71.31;98856.16;5068526;28;20282;-56
2022/06/23 03:36:29;;;;;;;17.00;8.77;;;;;;;24.75;70.94;98873.63;5068622;28;20246;-55
2022/06/23 03:41:49;;;;;;;14.65;8.63;;;;;;;24.89;70.26;98875.78;5034881;28;20705;-55
2022/06/23 03:44:23;;;;;;;12.13;8.50;;;;;;;24.92;70.45;98891.41;5067855;28;20207;-55
2022/06/23 03:46:55;;;;;;;11.05;8.38;;;;;;;25.03;69.86;98885.94;5068405;28;20635;-55
2022/06/23 03:49:42;;;;;;;17.95;8.75;;;;;;;24.92;70.89;98896.72;5068904;28;20202;-54
2022/06/23 03:52:21;;;;;;;11.30;8.35;;;;;;;24.98;70.99;98898.81;5068836;28;20200;-56
2022/06/23 03:54:53;;;;;;;13.90;7.82;;;;;;;24.90;71.37;98894.22;5068667;28;20199;-55
2022/06/23 03:57:27;;;;;;;16.35;8.88;;;;;;;24.87;72.07;98901.66;5067688;28;20628;-55
2022/06/23 04:00:04;;;;;;;17.00;9.15;;;;;;;24.77;72.59;98914.97;5064999;28;20203;-55
2022/06/23 04:02:38;;;;;;;10.95;7.93;;;;;;;24.71;73.41;98909.44;5063982;28;20198;-55
2022/06/23 04:05:15;;;;;;;14.70;8.90;;;;;;;24.69;73.72;98911.41;5066055;28;20615;-55
2022/06/23 04:07:51;;;;;;;16.58;9.73;;;;;;;24.79;73.35;98906.88;5066009;28;20567;-55
2022/06/23 04:10:24;;;;;;;9.80;8.77;;;;;;;24.78;73.34;98905.19;5065093;28;20191;-55
2022/06/23 04:13:00;;;;;;;18.80;8.77;;;;;;;24.86;72.41;98916.72;5064194;28;20739;-56
2022/06/23 04:15:32;;;;;;;15.88;9.43;;;;;;;24.99;71.86;98913.75;5065847;28;20772;-55
2022/06/23 04:18:03;;;;;;;17.60;9.48;;;;;;;25.07;70.89;98916.47;5065981;28;20621;-55
2022/06/23 04:20:34;;;;;;;15.20;8.82;;;;;;;25.11;70.75;98906.41;5063678;28;20275;-56
2022/06/23 04:23:07;;;;;;;15.82;9.13;;;;;;;25.31;70.36;98902.59;5047238;28;20630;-55
2022/06/23 04:25:43;;;;;;;14.50;8.98;;;;;;;26.03;67.48;98902.38;5049704;28;20231;-56
2022/06/23 04:28:20;;;;;;;12.00;8.23;;;;;;;26.73;62.77;98903.06;5056350;28;21021;-56
2022/06/23 04:30:48;;;;;;;14.70;9.07;;;;;;;27.08;61.11;98903.84;5054647;28;20239;-57
2022/06/23 04:33:18;;;;;;;13.98;7.80;;;;;;;27.06;60.60;98900.50;5049165;28;20223;-55
2022/06/23 04:35:50;;;;;;;13.48;8.07;;;;;;;26.91;61.53;98902.94;5067531;28;20226;-54
2022/06/23 04:38:28;;;;;;;18.40;8.32;;;;;;;26.95;61.85;98899.00;5068034;28;20223;-54
2022/06/23 04:41:02;;;;;;;11.35;8.18;;;;;;;26.74;61.61;98888.75;5067959;28;20223;-56
2022/06/23 04:43:35;;;;;;;11.18;8.80;;;;;;;26.82;61.99;98893.25;5068077;28;20238;-54
2022/06/23 04:46:08;;;;;;;15.65;9.10;;;;;;;26.87;62.29;98898.09;5067847;28;20224;-54
2022/06/23 04:48:44;;;;;;;11.93;8.90;;;;;;;27.02;60.97;98888.50;5067022;28;20238;-55
2022/06/23 04:51:23;;;;;;;13.05;8.52;;;;;;;27.45;58.36;98866.88;5066775;28;20719;-55
2022/06/23 04:53:58;;;;;;;12.80;8.15;;;;;;;28.75;53.77;98898.63;5066900;28;20207;-55
2022/06/23 04:56:42;;;;;;;12.68;8.07;;;;;;;30.12;50.07;98900.47;5067662;28;20227;-55
2022/06/23 04:59:24;;;;;;;16.02;7.97;;;;;;;30.62;47.13;98913.97;5066809;28;20192;-56
2022/06/23 05:01:54;;;;;;;15.70;7.95;;;;;;;30.74;46.62;98917.00;5069201;28;20657;-56
2022/06/23 05:04:24;;;;;;;30.83;9.00;;;;;;;31.19;45.62;98923.09;5086454;28;20683;-56
2022/06/23 05:06:55;;;;;;;14.38;7.55;;;;;;;31.30;45.36;98919.91;5066066;28;20302;-56
2022/06/23 05:09:29;;;;;;;15.63;8.13;;;;;;;32.22;43.58;98931.47;5066257;28;20283;-55
2022/06/23 05:12:00;;;;;;;13.57;8.35;;;;;;;33.25;41.43;98927.84;5064603;28;20195;-56
2022/06/23 05:14:34;;;;;;;15.50;8.02;;;;;;;34.48;38.83;98935.31;5068205;28;20727;-56
2022/06/23 05:17:14;;;;;;;13.40;7.78;;;;;;;35.18;37.21;98947.09;5070416;28;20758;-56
2022/06/23 05:19:43;;;;;;;18.20;7.55;;;;;;;35.73;36.10;98944.66;5068823;28;20205;-55
2022/06/23 05:22:23;;;;;;;18.05;8.38;;;;;;;36.69;33.75;98947.72;5070167;28;20200;-56
2022/06/23 05:24:53;;;;;;;11.40;7.30;;;;;;;36.83;34.07;98942.16;5069944;28;20196;-56
2022/06/23 05:27:25;;;;;;;12.60;7.05;;;;;;;37.46;33.05;98939.06;5070163;28;20208;-55
2022/06/23 05:29:58;;;;;;;12.93;7.00;;;;;;;37.19;33.01;98944.84;5067447;28;20196;-56
2022/06/23 05:32:29;;;;;;;13.35;6.65;;;;;;;37.95;31.68;98960.34;5071124;28;20203;-56
2022/06/23 05:35:03;;;;;;;15.40;6.95;;;;;;;38.75;30.48;98960.59;5071340;28;20199;-54
2022/06/23 05:37:37;;;;;;;9.95;6.93;;;;;;;38.56;30.71;98961.81;5071654;28;20679;-55
2022/06/23 05:40:21;;;;;;;11.73;6.30;;;;;;;39.15;29.69;98957.91;5071404;28;20611;-54
2022/06/23 05:42:50;;;;;;;6.70;6.20;;;;;;;39.66;29.16;98956.09;5071291;28;20202;-55
2022/06/23 05:45:22;;;;;;;10.85;7.00;;;;;;;40.24;28.63;98958.41;5076219;28;20214;-55
2022/06/23 05:47:49;;;;;;;11.50;7.05;;;;;;;40.33;27.69;98967.00;5091945;28;20236;-56
2022/06/23 05:50:21;;;;;;;8.40;6.55;;;;;;;39.44;29.08;98950.56;5091543;28;20198;-55
2022/06/23 05:52:54;;;;;;;14.02;5.97;;;;;;;39.51;28.34;98948.50;5091461;28;20674;-55
2022/06/23 05:55:30;;;;;;;14.93;6.20;;;;;;;40.15;27.99;98950.94;5091228;28;20198;-55
2022/06/23 05:58:02;;;;;;;7.43;6.35;;;;;;;40.28;27.42;98953.34;5087443;28;20195;-55
2022/06/23 06:00:35;;;;;;;10.05;5.90;;;;;;;40.58;27.60;98958.38;5071861;28;20195;-56
2022/06/23 06:03:10;;;;;;;7.45;6.00;;;;;;;40.73;27.14;98952.34;5071322;28;20195;-56
2022/06/23 06:05:39;;;;;;;10.43;6.97;;;;;;;40.80;26.80;98947.50;5071341;28;20317;-56
2022/06/23 06:08:13;;;;;;;14.98;6.30;;;;;;;40.67;26.65;98956.84;5071635;28;20671;-56
2022/06/23 06:10:42;;;;;;;7.75;6.95;;;;;;;39.93;26.77;98945.44;5071672;28;20195;-56
2022/06/23 06:13:15;;;;;;;11.82;5.88;;;;;;;39.46;27.22;98940.28;5071624;28;20296;-56
2022/06/23 06:15:48;;;;;;;16.23;6.32;;;;;;;38.93;28.16;98951.47;5071423;28;20314;-54
2022/06/23 06:18:21;;;;;;;11.20;5.93;;;;;;;39.04;27.69;98947.09;5071452;28;20202;-55
2022/06/23 06:20:48;;;;;;;10.38;5.75;;;;;;;38.51;28.81;98948.91;5071267;28;20195;-54
2022/06/23 06:23:23;;;;;;;8.57;5.90;;;;;;;37.55;29.55;98951.19;5071358;28;20195;-55
2022/06/23 06:25:52;;;;;;;7.55;6.50;;;;;;;36.03;31.07;98945.66;5071026;28;20730;-54
2022/06/23 06:28:20;;;;;;;8.73;7.18;;;;;;;35.09;32.94;98926.81;5070957;28;20197;-56
2022/06/23 06:30:55;;;;;;;15.48;6.90;;;;;;;34.22;34.67;98951.50;5051039;28;20236;-56
2022/06/23 06:33:35;;;;;;;9.70;6.60;;;;;;;33.32;37.38;98941.31;5051035;28;20207;-55
2022/06/23 06:36:02;;;;;;;11.07;8.05;;;;;;;32.87;37.07;98932.88;5051240;28;20216;-55
2022/06/23 06:38:31;;;;;;;9.50;5.75;;;;;;;32.35;38.29;98941.47;5050594;28;20204;-56
2022/06/23 06:41:00;;;;;;;16.15;6.20;;;;;;;32.01;39.54;98942.25;5050588;28;20238;-56
2022/06/23 06:43:31;;;;;;;11.65;6.60;;;;;;;32.49;39.07;98937.00;5066004;28;20192;-56
2022/06/23 06:45:59;;;;;;;6.47;5.88;;;;;;;32.42;38.34;98945.84;5070792;28;20226;-57
2022/06/23 06:48:30;;;;;;;8.65;6.20;;;;;;;32.21;39.83;98951.31;5071348;28;20626;-57
2022/06/23 06:51:01;;;;;;;12.50;7.07;;;;;;;32.00;40.26;98959.38;5071203;28;20200;-55
2022/06/23 06:53:35;;;;;;;10.57;6.70;;;;;;;31.39;40.19;98972.41;5070957;28;20608;-55
2022/06/23 06:56:09;;;;;;;12.93;7.10;;;;;;;30.85;41.08;98985.34;5071014;28;20659;-56
2022/06/23 06:58:42;;;;;;;11.23;7.82;;;;;;;30.41;43.49;99006.75;5069882;28;20553;-56
2022/06/23 07:01:15;;;;;;;11.82;7.80;;;;;;;29.88;45.40;99021.94;5068807;28;20294;-57
2022/06/23 07:03:47;;;;;;;7.95;6.90;;;;;;;29.36;47.68;99038.63;5069410;28;20196;-55
2022/06/23 07:06:19;;;;;;;18.73;9.18;;;;;;;28.88;51.27;99047.69;5069134;28;20220;-57
2022/06/23 07:08:51;;;;;;;15.35;8.77;;;;;;;28.41;56.11;99072.47;5069081;28;20199;-56
2022/06/23 07:11:25;;;;;;;14.50;8.75;;;;;;;28.00;58.93;99103.59;5069836;28;20277;-55
2022/06/23 07:13:58;;;;;;;11.57;9.40;;;;;;;27.49;64.17;99123.31;5070482;28;20284;-55
2022/06/23 07:16:32;;;;;;;11.32;7.57;;;;;;;27.01;63.77;99155.88;5070038;28;20234;-55
2022/06/23 07:19:05;;;;;;;11.45;8.25;;;;;;;26.61;65.25;99165.22;5070293;28;20200;-55
2022/06/23 07:21:38;;;;;;;11.98;8.15;;;;;;;26.33;66.64;99193.75;5070426;28;20282;-56
2022/06/23 07:24:12;;;;;;;11.77;8.15;;;;;;;26.01;71.44;99215.50;5070398;28;20661;-57
2022/06/23 07:26:45;;;;;;;13.68;9.15;;;;;;;25.68;75.80;99229.41;5070083;28;20223;-56
2022/06/23 07:29:23;;;;;;;14.93;7.82;;;;;;;25.44;76.50;99240.53;5070062;28;20200;-56
2022/06/23 07:32:00;;;;;;;11.65;7.10;;;;;;;25.17;78.13;99224.53;5070037;28;20200;-56
2022/06/23 07:34:31;;;;;;;15.15;7.10;;;;;;;24.99;79.40;99210.31;5070160;28;20191;-57
2022/06/23 07:37:00;;;;;;;11.15;7.93;;;;;;;24.90;86.45;99194.22;5069852;28;20218;-56
2022/06/23 07:39:34;;;;;;;12.05;8.27;;;;;;;24.74;89.30;99174.53;5070079;28;20210;-56
2022/06/23 07:42:09;;;;;;;14.10;9.65;;;;;;;24.75;93.10;99171.75;5069825;28;20202;-56
2022/06/23 07:44:40;;;;;;;14.40;9.00;;;;;;;24.44;97.82;99154.34;5070087;28;20218;-56
2022/06/23 07:47:07;;;;;;;11.48;8.98;;;;;;;24.27;98.83;99121.38;5069931;28;20307;-56
2022/06/23 07:49:34;;;;;;;14.35;9.50;;;;;;;24.24;99.05;99095.16;5070150;28;20204;-56
2022/06/23 07:52:03;;;;;;;16.25;8.93;;;;;;;24.20;99.33;99091.06;5069671;28;20199;-55
2022/06/23 07:54:31;;;;;;;13.88;8.75;;;;;;;24.02;100.00;99079.50;5069774;28;20696;-54
2022/06/23 07:56:59;;;;;;;9.88;8.93;;;;;;;23.80;100.00;99077.97;5070156;28;20200;-54
2022/06/23 07:59:34;;;;;;;10.43;9.20;;;;;;;23.58;100.00;99057.88;5069592;28;20195;-54
2022/06/23 08:02:08;;;;;;;9.57;8.00;;;;;;;23.60;100.00;99076.25;5069636;28;20200;-55
2022/06/23 08:04:52;;;;;;;12.60;8.63;;;;;;;23.64;100.00;99070.53;5069899;28;20199;-56
2022/06/23 08:07:20;;;;;;;14.27;8.95;;;;;;;23.43;100.00;99060.03;5069406;28;20242;-56
2022/06/23 08:09:51;;;;;;;14.23;9.13;;;;;;;23.47;100.00;99076.50;5069502;28;20283;-56
2022/06/23 08:18:02;;;;;;;12.25;9.30;;;;;;;23.15;100.00;99080.16;5067137;28;20200;-57
2022/06/23 08:20:32;;;;;;;11.07;8.68;;;;;;;22.95;100.00;99088.16;5066173;28;20730;-57
2022/06/23 08:23:01;;;;;;;15.05;10.07;;;;;;;22.75;100.00;99090.72;5068072;28;20210;-58
2022/06/23 08:25:29;;;;;;;13.52;9.95;;;;;;;22.55;100.00;99104.78;5066196;28;20286;-56
2022/06/23 08:27:58;;;;;;;17.17;10.10;;;;;;;22.37;100.00;99096.56;5074451;28;20225;-56
2022/06/23 08:30:27;;;;;;;17.33;11.20;;;;;;;22.28;100.00;99102.63;5052262;28;20208;-57
2022/06/23 08:32:55;;;;;;;13.15;10.25;;;;;;;22.16;100.00;99121.31;5052627;28;20215;-56
2022/06/23 08:35:28;;;;;;;11.55;8.95;;;;;;;22.01;100.00;99136.63;5049369;28;20192;-56
2022/06/23 08:37:59;;;;;;;14.23;9.85;;;;;;;22.05;100.00;99167.13;5049315;28;20192;-56
2022/06/23 08:40:38;;;;;;;20.23;11.73;;;;;;;22.06;100.00;99179.38;5049060;28;20287;-56
2022/06/23 08:43:15;;;;;;;23.73;14.63;;;;;;;22.02;100.00;99196.44;5049199;28;20226;-57
2022/06/23 08:45:51;;;;;;;18.60;12.13;;;;;;;21.93;100.00;99163.66;5049302;28;20218;-54
2022/06/23 08:48:24;;;;;;;16.80;11.25;;;;;;;22.09;100.00;99171.22;5050422;28;20295;-55
2022/06/23 08:51:00;;;;;;;17.60;9.88;;;;;;;21.86;100.00;99178.31;5052979;28;20695;-56
2022/06/23 08:53:37;;;;;;;24.80;14.77;;;;;;;21.87;100.00;99156.22;5053376;28;20330;-55
2022/06/23 08:56:09;;;;;;;14.50;12.02;;;;;;;21.88;100.00;99163.19;5055117;28;20223;-56
2022/06/23 08:58:41;;;;;;;19.27;10.63;;;;;;;21.95;100.00;99176.75;5068723;28;20200;-56
2022/06/23 09:01:14;;;;;;;17.90;9.95;;;;;;;21.81;100.00;99179.63;5071591;28;20650;-57
2022/06/23 09:03:51;;;;;;;19.77;12.13;;;;;;;21.74;100.00;99172.22;5069713;28;20196;-57
2022/06/23 09:06:31;;;;;;;20.30;10.98;;;;;;;21.77;100.00;99180.88;5069285;28;20580;-57
2022/06/23 09:09:10;;;;;;;24.27;13.20;;;;;;;21.65;100.00;99180.06;5069218;28;20195;-57
2022/06/23 09:11:48;;;;;;;20.02;11.52;;;;;;;21.55;100.00;99137.69;5068971;28;20192;-57
2022/06/23 09:14:43;;;;;;;21.98;10.95;;;;;;;21.61;100.00;99118.69;5071305;28;20206;-57
2022/06/23 09:17:31;;;;;;;18.10;11.48;;;;;;;21.44;100.00;99076.97;5036114;28;20192;-55
2022/06/23 09:20:15;;;;;;;18.98;11.57;;;;;;;21.59;100.00;99107.41;5068748;28;20204;-55
2022/06/23 09:23:08;;;;;;;16.67;12.45;;;;;;;21.40;100.00;99109.84;5069256;28;20202;-55
2022/06/23 09:25:41;;;;;;;20.33;11.50;;;;;;;21.35;100.00;99117.28;5071114;28;20192;-57
2022/06/23 09:28:21;;;;;;;16.05;10.63;;;;;;;21.40;100.00;99120.41;5071059;28;20219;-56
2022/06/23 09:31:09;;;;;;;21.35;11.40;;;;;;;21.48;100.00;99117.16;5070113;28;20572;-57
2022/06/23 09:33:49;;;;;;;17.20;12.27;;;;;;;21.57;100.00;99130.47;5071077;28;20295;-57
2022/06/23 09:36:41;;;;;;;17.48;12.48;;;;;;;21.65;100.00;99136.00;5068572;28;20586;-56
2022/06/23 09:39:44;;;;;;;17.30;11.73;;;;;;;21.75;100.00;99146.66;5069645;28;20196;-55
2022/06/23 09:42:32;;;;;;;17.90;12.77;;;;;;;22.00;100.00;99145.53;5034906;28;20654;-55
2022/06/23 09:45:19;;;;;;;13.15;11.80;;;;;;;22.24;100.00;99132.06;5068565;28;20199;-54
2022/06/23 09:48:05;;;;;;;18.58;10.82;;;;;;;22.51;100.00;99134.25;5069656;28;20215;-55
2022/06/23 09:50:58;;;;;;;11.68;10.25;;;;;;;23.28;100.00;99121.44;5070328;28;20195;-54
2022/06/23 09:53:54;;;;;;;13.10;9.25;;;;;;;23.87;100.00;99116.19;5069176;28;20206;-55
2022/06/23 09:56:40;;;;;;;13.73;11.35;;;;;;;24.41;100.00;99105.03;5068908;28;20206;-56
2022/06/23 09:59:29;;;;;;;13.18;10.68;;;;;;;24.75;100.00;99085.97;5069424;28;20283;-58
2022/06/23 10:02:05;;;;;;;16.88;10.95;;;;;;;24.86;100.00;99075.19;5070353;28;20200;-57
2022/06/23 10:04:52;;;;;;;16.20;10.93;;;;;;;24.85;100.00;99049.59;5070825;28;20256;-56
2022/06/23 10:07:54;;;;;;;14.43;9.65;;;;;;;25.68;100.00;99081.38;5068171;28;20219;-57
2022/06/23 10:10:35;;;;;;;12.30;9.50;;;;;;;26.25;100.00;99087.22;5063007;28;20196;-57
2022/06/23 10:13:26;;;;;;;11.10;8.50;;;;;;;26.53;100.00;99093.28;5070051;28;20722;-57
2022/06/23 10:16:07;;;;;;;11.43;8.48;;;;;;;26.63;100.00;99085.22;5069967;28;20219;-56
2022/06/23 10:19:07;;;;;;;12.27;8.75;;;;;;;26.77;100.00;99072.13;5069832;28;20608;-58
2022/06/23 10:21:43;;;;;;;14.25;11.07;;;;;;;26.79;100.00;99060.50;5069501;28;20206;-57
2022/06/23 10:24:29;;;;;;;15.20;9.73;;;;;;;26.65;100.00;99057.44;5069216;28;20279;-57
2022/06/23 10:27:09;;;;;;;8.07;6.68;;;;;;;26.61;100.00;99053.44;5069273;28;20219;-56
2022/06/23 10:30:02;;;;;;;9.00;7.60;;;;;;;26.31;100.00;99025.44;5070453;28;20281;-57
2022/06/23 10:32:56;;;;;;;10.43;7.97;;;;;;;26.61;100.00;99041.94;5069357;28;20206;-57
2022/06/23 10:35:34;;;;;;;13.57;7.90;;;;;;;26.53;100.00;99029.41;5068509;28;20191;-57
2022/06/23 10:38:25;;;;;;;12.95;8.38;;;;;;;26.67;100.00;99031.47;5068173;28;20290;-57
2022/06/23 10:41:12;;;;;;;12.20;10.80;;;;;;;26.64;100.00;99021.13;5069362;28;20196;-57
2022/06/23 10:43:56;;;;;;;10.77;9.77;;;;;;;26.42;100.00;99032.31;5067487;28;20192;-56
2022/06/23 10:46:29;;;;;;;13.63;9.20;;;;;;;26.56;100.00;99034.41;5068691;28;20571;-57
2022/06/23 10:49:32;;;;;;;10.52;9.40;;;;;;;26.70;100.00;99039.16;5069254;28;20199;-57
2022/06/23 10:52:23;;;;;;;11.88;10.35;;;;;;;26.42;100.00;99039.47;5066459;28;20278;-57
2022/06/23 10:55:19;;;;;;;11.65;10.57;;;;;;;26.59;100.00;99033.28;5068434;28;20200;-58
2022/06/23 10:58:09;;;;;;;10.35;9.38;;;;;;;26.49;100.00;99027.22;5068875;28;20196;-57
2022/06/23 11:00:45;;;;;;;11.80;9.82;;;;;;;26.34;100.00;99040.25;5069620;28;20684;-57
2022/06/23 11:03:48;;;;;;;10.73;9.63;;;;;;;26.38;100.00;99036.31;5069603;28;20200;-60
2022/06/23 11:06:32;;;;;;;11.02;9.43;;;;;;;26.38;100.00;99037.13;5068939;28;20198;-56
2022/06/23 11:09:12;;;;;;;12.45;10.32;;;;;;;26.10;100.00;99022.25;5067127;28;20279;-56
2022/06/23 11:11:58;;;;;;;18.48;9.52;;;;;;;26.33;100.00;99018.13;5067681;28;20242;-55
2022/06/23 11:14:42;;;;;;;11.02;8.90;;;;;;;26.58;100.00;99015.63;5068134;28;20195;-56
2022/06/23 11:17:17;;;;;;;10.93;8.68;;;;;;;26.65;100.00;99017.50;5067721;28;20202;-56
2022/06/23 11:20:05;;;;;;;11.93;8.88;;;;;;;26.68;100.00;99016.34;5072722;28;20222;-57
2022/06/23 11:22:47;;;;;;;11.70;8.00;;;;;;;26.96;100.00;99020.53;5071408;28;20599;-59
2022/06/23 11:25:39;;;;;;;10.20;8.38;;;;;;;27.28;100.00;99006.47;5069776;28;20281;-58
2022/06/23 11:28:18;;;;;;;13.73;9.40;;;;;;;27.16;99.90;99007.75;5070102;28;20227;-57
2022/06/23 11:30:56;;;;;;;11.90;9.50;;;;;;;26.97;100.00;99000.03;5070192;28;20200;-56
2022/06/23 11:33:47;;;;;;;11.25;7.97;;;;;;;27.01;100.00;98999.53;5084354;28;20210;-57
2022/06/23 11:36:28;;;;;;;11.48;7.93;;;;;;;26.98;100.00;98985.72;5090809;28;20198;-58
2022/06/23 11:39:20;;;;;;;10.50;8.65;;;;;;;26.92;99.96;98986.34;5090506;28;20199;-58
2022/06/23 11:42:05;;;;;;;15.27;7.97;;;;;;;27.13;100.00;98977.94;5090153;28;20214;-57
2022/06/23 11:44:53;;;;;;;8.88;8.00;;;;;;;27.24;100.00;98970.47;5090396;28;20229;-57
2022/06/23 11:47:32;;;;;;;8.57;7.43;;;;;;;27.33;97.67;98974.81;5089971;28;20219;-57
2022/06/23 11:50:12;;;;;;;11.50;7.63;;;;;;;27.19;96.81;98980.81;5090031;28;20209;-58
2022/06/23 11:53:00;;;;;;;11.50;7.40;;;;;;;27.33;96.69;98974.81;5090460;28;20226;-57
2022/06/23 11:55:35;;;;;;;10.90;7.70;;;;;;;27.23;97.32;98971.47;5086905;28;20199;-57
2022/06/23 11:58:32;;;;;;;7.63;6.95;;;;;;;27.23;99.20;98952.81;5090099;28;20758;-56
2022/06/23 12:01:14;;;;;;;10.55;7.45;;;;;;;27.15;96.53;98975.94;5081784;28;20245;-57
2022/06/23 12:04:14;;;;;;;8.10;7.28;;;;;;;27.04;97.04;98975.25;5090222;28;20690;-57
2022/06/23 12:06:54;;;;;;;11.18;7.63;;;;;;;27.18;94.47;98979.13;5089970;28;20345;-53
2022/06/23 12:09:29;;;;;;;7.47;6.45;;;;;;;27.22;95.06;98980.44;5084979;28;20199;-54
2022/06/23 12:11:59;;;;;;;8.60;6.63;;;;;;;27.27;95.42;98980.81;5050223;28;20196;-54
2022/06/23 12:14:27;;;;;;;10.82;7.53;;;;;;;27.24;95.17;98969.63;5082134;28;20203;-52
2022/06/23 12:17:00;;;;;;;7.63;6.93;;;;;;;27.33;95.89;98972.16;5089555;28;20213;-54